空の公差-Tolerance-

航空写真家 瀬尾 央(せお ひろし)氏による月刊「航空ファン」の連載記事、『 Light & Flight 』に中学生の頃出会い、触発され、写真撮影とプロペラ単発機での飛行を趣味として、空の写真、空からの写真を撮り続けています。 2004年には自費出版の写真集「空の公差-Tolerance-」(エアワークス刊,ISBN9784902113037)を作りました。

2015年07月

伊豆下田1泊2日

伊豆下田温泉へ1泊2日で行ってきました。
今回は電車でラクラク。
車窓の海にも癒されてリラックスできました。


20150725DSC_3828海SM
伊豆急は海岸線ギリギリを通るのでこんな車窓です

3か月振りのボナンザ

RJTF  → RJNS  0950-1047 (0+57)   BE36
RJNS → RJTO  1115-1156(0+41)   BE36
RJTO → RJTF  1220-1301(0+41)   BE36

ボナンザの耐空検査が終わり3か月ぶりにフライトして
きました。思ったほどブランクは感じず、一人で大丈夫
とお墨付きをもらえました。ボナンザだと調布から静岡
は1時間を切って、実飛行時間約40分です。5月にセス
ナ172で調布から静岡へ行ったときは1時間10分だった
ので、ボナンザの速さがわかります。

暑いこともあって午後1時過ぎには撤収。空港の駐車場
で南紀白浜へ行っていたというTB-10オーナーのSさん
に偶然お会いしました。なんと隣に駐車している高級車
の持ち主でもありました。

20150720DSCN2446JA3735SM
暑いこともあり午後1時過ぎに撤収です

20150720DSC_3781富士山SM
夏富士が入道雲から垣間見えます

20150720DSC_3806入道雲SM
夏本番といった感じの積乱雲が出ていました

RJTF 200100Z VRB02KT 9999 SCT030 31/22 Q1014
RJTF 200400Z 16009KT 9999 BKN035 34/23 Q1013 
RJNS 200300Z 25010KT 210V280 9999 FEW020 32/22 Q1014
RJNS 200200Z 25008KT 210V280 9999 FEW025 BKN140 31/22 Q1014 
RJTO 200400Z 21014KT 9999 FEW010 29/25 Q1013
RJTO 200300Z 20014KT 9999 FEW008 29/25 Q1014

帰国しました

1泊2日なのに長い出張に感じました。
日程よりも移動距離で疲れたようです。
今回は夜市へもいかずホテルの部屋にこもっていました。

20150718DSCN2378桃園SM
 復路もA330です

20150718DSCN2421入道雲SM
沖縄本島付近でみた大きな積乱雲

20150718DSCN2424沖縄付近SM
画面左下に薄い虹が見えています 

RJAA 181030Z 19007KT 160V220 9999 -SHRA
FEW010 BKN150 27/24 Q1010 NOSIG RMK 1CU010
7AC150 A2984
RJAA 181000Z 19008KT 9999 FEW010 BKN140
BKN170 27/23 Q1010 NOSIG RMK 1CU010 5AC140
7AC170 A2983
RJAA 180930Z 20009KT 160V220 9999 -SHRA FEW010
SCT150 BKN170 27/23 Q1009 NOSIG RMK 1CU010
4AC150 7AC170 A2982
 

RCTP 180800Z 03013KT 9999 FEW025 SCT100 33/25
Q1002 NOSIG RMK A2959
RCTP 180730Z 01011KT 340V050 9999 FEW025 33/26
Q1002 NOSIG RMK A2960
 

飛行機写真

荷物を少なくするのにコンデジで出張していました。
それでも少し飛行機写真が撮れました。

20150717DSCN2387カーゴルクス747-8F桃園SM
カーゴルクスのB747-8F。8Fも見慣れてきました

20150718DSCN2406AIRDOJA08ANB737-700桃園SM
桃園で整備中のAIR DO B737-700。旧ANAの機体です

20150718DSCN2410HK7500B777桃園SM
アシアナ航空の機体だったB777。向いにドリームリフター

20150718DSCN24001オリエントタイB747-400桃園SM
飛行状態にあるのかわからないオリエントタイのB747-400

DSCN2414B-16302元エバー航空A330桃園SM
エバー航空のA330。転売でしょうか

20150718DSCN2416中華航空スカイチーム塗装B747-400桃園SM
スカイチーム塗装のチャイナエアB747-400

20150718DSCN2433ジェットスターB787成田SM
成田空港第三ターミナルのジェットスターのB787-8

台湾出張

1泊2日の台湾出張です。
仕事は金曜に終わらせ土曜には帰国します。
台風の近くを通るので雲模様に期待していました。
でも、いつもよりかなり南側を飛んだのでただの雲上
飛行でした。

1泊の日程だと、スターアライアンス系の運賃は高い
ので必然的にチャイナエアラインになります。

20150717DSCN2374成田SM
 乗るのはチャイナエアラインのA330

富士山夕景

ぼんやりとした富士山が印象的な夕空でした。

20150713DSCN2363空SM
吸い込まれそうな空です

20150713DSCN2371夕空富士山SM
 富士山が優しい空の色に包まれています

ソーラー・インパルス(Solar Impulse)ハワイ着

深夜に偶然ソーラーインパルスのwebをチェックすると
ハワイに着陸するところでした。ライブで楽しみました。
約4日と22時間飛んでいたようです。おつかれさまです。

20150704ソーラーインパルス20150704DSC_3728SM
着陸まであと1分ほど

20150704ソーラーインパルス20150704DSC_3733SM
いよいよ着陸!

vソーラーインパルス20150704DSC_3740SM
日本時間7/4午前1時すぎ無事着陸
 

夕やけ日和

定時後に出てきたトラブルも解決の目途がつき、ふぅっと
空を見ると今日も良い空でした。

20150701DSCN2319空模様SM
目途がついただけで解決するまで会社で仕事します…



 
記事検索
月別アーカイブ
livedoor プロフィール
タグクラウド
QRコード
QRコード
  • ライブドアブログ